sensor_id;sensor_type;location;lat;lon;timestamp;temperature;humidity
14555;DHT22;7364;50.870;4.722;2022-07-21T00:00:18;21.20;99.90
14555;DHT22;7364;50.870;4.722;2022-07-21T00:02:46;21.30;99.90
14555;DHT22;7364;50.870;4.722;2022-07-21T00:05:14;21.40;99.90
14555;DHT22;7364;50.870;4.722;2022-07-21T00:07:41;21.50;99.90
14555;DHT22;7364;50.870;4.722;2022-07-21T00:10:10;21.60;99.90
14555;DHT22;7364;50.870;4.722;2022-07-21T00:12:37;21.40;99.90
14555;DHT22;7364;50.870;4.722;2022-07-21T00:15:06;21.30;99.90
14555;DHT22;7364;50.870;4.722;2022-07-21T00:17:34;21.00;99.90
14555;DHT22;7364;50.870;4.722;2022-07-21T00:20:03;20.90;99.90
14555;DHT22;7364;50.870;4.722;2022-07-21T00:22:33;20.80;99.90
14555;DHT22;7364;50.870;4.722;2022-07-21T00:25:00;20.90;99.90
14555;DHT22;7364;50.870;4.722;2022-07-21T00:27:29;20.90;99.90
14555;DHT22;7364;50.870;4.722;2022-07-21T00:29:56;21.00;99.90
14555;DHT22;7364;50.870;4.722;2022-07-21T00:32:26;21.00;99.90
14555;DHT22;7364;50.870;4.722;2022-07-21T00:34:54;20.90;99.90
14555;DHT22;7364;50.870;4.722;2022-07-21T00:37:21;20.90;99.90
14555;DHT22;7364;50.870;4.722;2022-07-21T00:39:49;20.80;99.90
14555;DHT22;7364;50.870;4.722;2022-07-21T00:42:22;20.70;99.90
14555;DHT22;7364;50.870;4.722;2022-07-21T00:44:49;20.60;99.90
14555;DHT22;7364;50.870;4.722;2022-07-21T00:47:19;20.70;99.90
14555;DHT22;7364;50.870;4.722;2022-07-21T00:49:47;20.60;99.90
14555;DHT22;7364;50.870;4.722;2022-07-21T00:52:15;20.80;99.90
14555;DHT22;7364;50.870;4.722;2022-07-21T00:54:42;20.70;99.90
14555;DHT22;7364;50.870;4.722;2022-07-21T00:57:11;20.60;99.90
14555;DHT22;7364;50.870;4.722;2022-07-21T00:59:38;20.40;99.90
14555;DHT22;7364;50.870;4.722;2022-07-21T01:02:06;20.50;99.90
14555;DHT22;7364;50.870;4.722;2022-07-21T01:04:34;20.30;99.90
14555;DHT22;7364;50.870;4.722;2022-07-21T01:07:04;20.30;99.90
14555;DHT22;7364;50.870;4.722;2022-07-21T01:09:33;20.10;99.90
14555;DHT22;7364;50.870;4.722;2022-07-21T01:12:00;20.10;99.90
14555;DHT22;7364;50.870;4.722;2022-07-21T01:14:28;20.20;99.90
14555;DHT22;7364;50.870;4.722;2022-07-21T01:16:55;20.20;99.90
14555;DHT22;7364;50.870;4.722;2022-07-21T01:19:22;20.10;99.90
14555;DHT22;7364;50.870;4.722;2022-07-21T01:21:51;20.00;99.90
14555;DHT22;7364;50.870;4.722;2022-07-21T01:24:18;20.10;99.90
14555;DHT22;7364;50.870;4.722;2022-07-21T01:26:47;20.40;99.90
14555;DHT22;7364;50.870;4.722;2022-07-21T01:29:15;20.50;99.90
14555;DHT22;7364;50.870;4.722;2022-07-21T01:31:46;20.40;99.90
14555;DHT22;7364;50.870;4.722;2022-07-21T01:34:14;20.40;99.90
14555;DHT22;7364;50.870;4.722;2022-07-21T01:36:41;20.40;99.90
14555;DHT22;7364;50.870;4.722;2022-07-21T01:39:09;20.50;99.90
14555;DHT22;7364;50.870;4.722;2022-07-21T01:41:54;20.50;99.90
14555;DHT22;7364;50.870;4.722;2022-07-21T01:44:21;20.40;99.90
14555;DHT22;7364;50.870;4.722;2022-07-21T01:46:51;20.30;99.90
14555;DHT22;7364;50.870;4.722;2022-07-21T01:49:20;20.40;99.90
14555;DHT22;7364;50.870;4.722;2022-07-21T01:51:47;20.60;99.90
14555;DHT22;7364;50.870;4.722;2022-07-21T01:54:17;20.70;99.90
14555;DHT22;7364;50.870;4.722;2022-07-21T01:56:44;20.60;99.90
14555;DHT22;7364;50.870;4.722;2022-07-21T01:59:11;20.60;99.90
14555;DHT22;7364;50.870;4.722;2022-07-21T02:01:38;20.50;99.90
14555;DHT22;7364;50.870;4.722;2022-07-21T02:04:05;20.60;99.90
14555;DHT22;7364;50.870;4.722;2022-07-21T02:06:33;20.50;99.90
14555;DHT22;7364;50.870;4.722;2022-07-21T02:09:00;20.40;99.90
14555;DHT22;7364;50.870;4.722;2022-07-21T02:11:29;20.30;99.90
14555;DHT22;7364;50.870;4.722;2022-07-21T02:13:56;20.30;99.90
14555;DHT22;7364;50.870;4.722;2022-07-21T02:16:23;20.20;99.90
14555;DHT22;7364;50.870;4.722;2022-07-21T02:18:51;20.30;99.90
14555;DHT22;7364;50.870;4.722;2022-07-21T02:21:18;20.50;99.90
14555;DHT22;7364;50.870;4.722;2022-07-21T02:23:45;20.70;99.90
14555;DHT22;7364;50.870;4.722;2022-07-21T02:26:12;20.90;99.90
14555;DHT22;7364;50.870;4.722;2022-07-21T02:28:43;21.00;99.90
14555;DHT22;7364;50.870;4.722;2022-07-21T02:31:11;21.00;99.90
14555;DHT22;7364;50.870;4.722;2022-07-21T02:33:38;21.00;99.90
14555;DHT22;7364;50.870;4.722;2022-07-21T02:36:06;20.80;99.90
14555;DHT22;7364;50.870;4.722;2022-07-21T02:38:34;20.70;99.90
14555;DHT22;7364;50.870;4.722;2022-07-21T02:41:01;20.60;99.90
14555;DHT22;7364;50.870;4.722;2022-07-21T02:43:28;20.50;99.90
14555;DHT22;7364;50.870;4.722;2022-07-21T02:45:57;20.50;99.90
14555;DHT22;7364;50.870;4.722;2022-07-21T02:48:24;20.40;99.90
14555;DHT22;7364;50.870;4.722;2022-07-21T02:50:51;20.40;99.90
14555;DHT22;7364;50.870;4.722;2022-07-21T02:53:19;20.30;99.90
14555;DHT22;7364;50.870;4.722;2022-07-21T02:55:49;20.30;99.90
14555;DHT22;7364;50.870;4.722;2022-07-21T02:58:19;20.30;99.90
14555;DHT22;7364;50.870;4.722;2022-07-21T03:00:49;20.40;99.90
14555;DHT22;7364;50.870;4.722;2022-07-21T03:03:20;20.40;99.90
14555;DHT22;7364;50.870;4.722;2022-07-21T03:05:48;20.40;99.90
14555;DHT22;7364;50.870;4.722;2022-07-21T03:08:17;20.50;99.90
14555;DHT22;7364;50.870;4.722;2022-07-21T03:10:44;20.60;99.90
14555;DHT22;7364;50.870;4.722;2022-07-21T03:13:12;20.40;99.90
14555;DHT22;7364;50.870;4.722;2022-07-21T03:15:39;20.40;99.90
14555;DHT22;7364;50.870;4.722;2022-07-21T03:18:07;20.20;99.90
14555;DHT22;7364;50.870;4.722;2022-07-21T03:20:38;20.10;99.90
14555;DHT22;7364;50.870;4.722;2022-07-21T03:23:06;20.10;99.90
14555;DHT22;7364;50.870;4.722;2022-07-21T03:25:33;20.30;99.90
14555;DHT22;7364;50.870;4.722;2022-07-21T03:28:04;20.40;99.90
14555;DHT22;7364;50.870;4.722;2022-07-21T03:30:32;20.40;99.90
14555;DHT22;7364;50.870;4.722;2022-07-21T03:32:59;20.20;99.90
14555;DHT22;7364;50.870;4.722;2022-07-21T03:35:26;20.10;99.90
14555;DHT22;7364;50.870;4.722;2022-07-21T03:37:57;20.20;99.90
14555;DHT22;7364;50.870;4.722;2022-07-21T03:40:26;20.20;99.90
14555;DHT22;7364;50.870;4.722;2022-07-21T03:42:56;19.90;99.90
14555;DHT22;7364;50.870;4.722;2022-07-21T03:45:25;20.00;99.90
14555;DHT22;7364;50.870;4.722;2022-07-21T03:47:56;20.10;99.90
14555;DHT22;7364;50.870;4.722;2022-07-21T03:50:26;20.20;99.90
14555;DHT22;7364;50.870;4.722;2022-07-21T03:52:55;20.10;99.90
14555;DHT22;7364;50.870;4.722;2022-07-21T03:55:23;20.10;99.90
14555;DHT22;7364;50.870;4.722;2022-07-21T03:57:52;20.10;99.90
14555;DHT22;7364;50.870;4.722;2022-07-21T04:00:21;19.90;99.90
14555;DHT22;7364;50.870;4.722;2022-07-21T04:02:49;20.10;99.90
14555;DHT22;7364;50.870;4.722;2022-07-21T04:05:17;20.30;99.90
14555;DHT22;7364;50.870;4.722;2022-07-21T04:07:47;20.30;99.90
14555;DHT22;7364;50.870;4.722;2022-07-21T04:10:18;20.40;99.90
14555;DHT22;7364;50.870;4.722;2022-07-21T04:12:45;20.40;99.90
14555;DHT22;7364;50.870;4.722;2022-07-21T04:15:13;20.40;99.90
14555;DHT22;7364;50.870;4.722;2022-07-21T04:17:40;20.40;99.90
14555;DHT22;7364;50.870;4.722;2022-07-21T04:20:09;20.50;99.90
14555;DHT22;7364;50.870;4.722;2022-07-21T04:22:36;20.30;99.90
14555;DHT22;7364;50.870;4.722;2022-07-21T04:25:04;20.30;99.90
14555;DHT22;7364;50.870;4.722;2022-07-21T04:27:33;20.20;99.90
14555;DHT22;7364;50.870;4.722;2022-07-21T04:30:01;20.10;99.90
14555;DHT22;7364;50.870;4.722;2022-07-21T04:32:28;20.00;99.90
14555;DHT22;7364;50.870;4.722;2022-07-21T04:34:55;19.90;99.90
14555;DHT22;7364;50.870;4.722;2022-07-21T04:37:22;19.90;99.90
14555;DHT22;7364;50.870;4.722;2022-07-21T04:39:49;20.20;99.90
14555;DHT22;7364;50.870;4.722;2022-07-21T04:42:17;20.10;99.90
14555;DHT22;7364;50.870;4.722;2022-07-21T04:44:45;20.40;99.90
14555;DHT22;7364;50.870;4.722;2022-07-21T04:47:12;20.40;99.90
14555;DHT22;7364;50.870;4.722;2022-07-21T04:49:40;20.50;99.90
14555;DHT22;7364;50.870;4.722;2022-07-21T04:52:07;20.70;99.90
14555;DHT22;7364;50.870;4.722;2022-07-21T04:54:34;20.50;99.90
14555;DHT22;7364;50.870;4.722;2022-07-21T04:57:01;20.50;99.90
14555;DHT22;7364;50.870;4.722;2022-07-21T04:59:30;20.80;99.90
14555;DHT22;7364;50.870;4.722;2022-07-21T05:01:59;20.70;99.90
14555;DHT22;7364;50.870;4.722;2022-07-21T05:04:27;20.70;99.90
14555;DHT22;7364;50.870;4.722;2022-07-21T05:06:55;20.50;99.90
14555;DHT22;7364;50.870;4.722;2022-07-21T05:09:24;20.50;99.90
14555;DHT22;7364;50.870;4.722;2022-07-21T05:11:51;20.60;99.90
14555;DHT22;7364;50.870;4.722;2022-07-21T05:14:21;20.50;99.90
14555;DHT22;7364;50.870;4.722;2022-07-21T05:16:48;20.60;99.90
14555;DHT22;7364;50.870;4.722;2022-07-21T05:19:17;20.60;99.90
14555;DHT22;7364;50.870;4.722;2022-07-21T05:21:44;20.50;99.90
14555;DHT22;7364;50.870;4.722;2022-07-21T05:24:12;20.50;99.90
14555;DHT22;7364;50.870;4.722;2022-07-21T05:26:40;20.30;99.90
14555;DHT22;7364;50.870;4.722;2022-07-21T05:29:07;20.40;99.90
14555;DHT22;7364;50.870;4.722;2022-07-21T05:31:35;20.50;99.90
14555;DHT22;7364;50.870;4.722;2022-07-21T05:34:02;20.40;99.90
14555;DHT22;7364;50.870;4.722;2022-07-21T05:36:32;20.50;99.90
14555;DHT22;7364;50.870;4.722;2022-07-21T05:38:59;20.40;99.90
14555;DHT22;7364;50.870;4.722;2022-07-21T05:41:26;20.30;99.90
14555;DHT22;7364;50.870;4.722;2022-07-21T05:43:53;20.50;99.90
14555;DHT22;7364;50.870;4.722;2022-07-21T05:46:20;20.80;99.90
14555;DHT22;7364;50.870;4.722;2022-07-21T05:48:47;21.10;99.90
14555;DHT22;7364;50.870;4.722;2022-07-21T05:51:15;21.50;99.90
14555;DHT22;7364;50.870;4.722;2022-07-21T05:53:43;21.70;99.90
14555;DHT22;7364;50.870;4.722;2022-07-21T05:56:10;21.70;99.90
14555;DHT22;7364;50.870;4.722;2022-07-21T05:58:37;21.70;99.90
14555;DHT22;7364;50.870;4.722;2022-07-21T06:01:04;21.30;99.90
14555;DHT22;7364;50.870;4.722;2022-07-21T06:03:40;21.20;99.90
14555;DHT22;7364;50.870;4.722;2022-07-21T06:06:09;21.20;99.90
14555;DHT22;7364;50.870;4.722;2022-07-21T06:08:37;21.10;99.90
14555;DHT22;7364;50.870;4.722;2022-07-21T06:11:07;20.90;99.90
14555;DHT22;7364;50.870;4.722;2022-07-21T06:13:34;20.70;99.90
14555;DHT22;7364;50.870;4.722;2022-07-21T06:16:03;20.80;99.90
14555;DHT22;7364;50.870;4.722;2022-07-21T06:18:31;20.90;99.90
14555;DHT22;7364;50.870;4.722;2022-07-21T06:21:03;20.90;99.90
14555;DHT22;7364;50.870;4.722;2022-07-21T06:23:31;21.00;99.90
14555;DHT22;7364;50.870;4.722;2022-07-21T06:25:58;20.90;99.90
14555;DHT22;7364;50.870;4.722;2022-07-21T06:28:26;20.80;99.90
14555;DHT22;7364;50.870;4.722;2022-07-21T06:30:54;20.90;99.90
14555;DHT22;7364;50.870;4.722;2022-07-21T06:33:21;21.00;99.90
14555;DHT22;7364;50.870;4.722;2022-07-21T06:35:49;20.80;99.90
14555;DHT22;7364;50.870;4.722;2022-07-21T06:38:16;20.60;99.90
14555;DHT22;7364;50.870;4.722;2022-07-21T06:40:44;20.50;99.90
14555;DHT22;7364;50.870;4.722;2022-07-21T06:43:11;20.60;99.90
14555;DHT22;7364;50.870;4.722;2022-07-21T06:45:40;20.70;99.90
14555;DHT22;7364;50.870;4.722;2022-07-21T06:48:08;20.60;99.90
14555;DHT22;7364;50.870;4.722;2022-07-21T06:50:36;20.30;99.90
14555;DHT22;7364;50.870;4.722;2022-07-21T06:53:04;20.10;99.90
14555;DHT22;7364;50.870;4.722;2022-07-21T06:55:31;19.90;99.90
14555;DHT22;7364;50.870;4.722;2022-07-21T06:58:08;19.90;99.90
14555;DHT22;7364;50.870;4.722;2022-07-21T07:00:36;20.00;99.90
14555;DHT22;7364;50.870;4.722;2022-07-21T07:03:04;20.00;99.90
14555;DHT22;7364;50.870;4.722;2022-07-21T07:05:32;20.20;99.90
14555;DHT22;7364;50.870;4.722;2022-07-21T07:08:01;20.20;99.90
14555;DHT22;7364;50.870;4.722;2022-07-21T07:10:28;20.20;99.90
14555;DHT22;7364;50.870;4.722;2022-07-21T07:12:56;20.10;99.90
14555;DHT22;7364;50.870;4.722;2022-07-21T07:15:26;20.00;99.90
14555;DHT22;7364;50.870;4.722;2022-07-21T07:17:54;20.00;99.90
14555;DHT22;7364;50.870;4.722;2022-07-21T07:20:24;20.00;99.90
14555;DHT22;7364;50.870;4.722;2022-07-21T07:22:51;20.00;99.90
14555;DHT22;7364;50.870;4.722;2022-07-21T07:25:18;19.80;99.90
14555;DHT22;7364;50.870;4.722;2022-07-21T07:27:47;19.70;99.90
14555;DHT22;7364;50.870;4.722;2022-07-21T07:30:15;19.80;99.90
14555;DHT22;7364;50.870;4.722;2022-07-21T07:32:43;19.80;99.90
14555;DHT22;7364;50.870;4.722;2022-07-21T07:35:11;19.70;99.90
14555;DHT22;7364;50.870;4.722;2022-07-21T07:37:41;19.50;99.90
14555;DHT22;7364;50.870;4.722;2022-07-21T07:40:12;19.60;99.90
14555;DHT22;7364;50.870;4.722;2022-07-21T07:42:39;19.70;99.90
14555;DHT22;7364;50.870;4.722;2022-07-21T07:45:10;19.50;99.90
14555;DHT22;7364;50.870;4.722;2022-07-21T07:47:38;19.40;99.90
14555;DHT22;7364;50.870;4.722;2022-07-21T07:50:07;19.40;99.90
14555;DHT22;7364;50.870;4.722;2022-07-21T07:52:35;19.40;99.90
14555;DHT22;7364;50.870;4.722;2022-07-21T07:55:05;19.40;99.90
14555;DHT22;7364;50.870;4.722;2022-07-21T07:57:34;19.40;99.90
14555;DHT22;7364;50.870;4.722;2022-07-21T08:00:02;19.40;99.90
14555;DHT22;7364;50.870;4.722;2022-07-21T08:02:30;19.40;99.90
14555;DHT22;7364;50.870;4.722;2022-07-21T08:04:57;19.30;99.90
14555;DHT22;7364;50.870;4.722;2022-07-21T08:07:24;19.30;99.90
14555;DHT22;7364;50.870;4.722;2022-07-21T08:09:52;19.30;99.90
14555;DHT22;7364;50.870;4.722;2022-07-21T08:12:20;19.50;99.90
14555;DHT22;7364;50.870;4.722;2022-07-21T08:14:47;19.40;99.90
14555;DHT22;7364;50.870;4.722;2022-07-21T08:17:14;19.20;99.90
14555;DHT22;7364;50.870;4.722;2022-07-21T08:19:43;19.10;99.90
14555;DHT22;7364;50.870;4.722;2022-07-21T08:22:11;19.00;99.90
14555;DHT22;7364;50.870;4.722;2022-07-21T08:24:38;19.00;99.90
14555;DHT22;7364;50.870;4.722;2022-07-21T08:27:05;19.00;99.90
14555;DHT22;7364;50.870;4.722;2022-07-21T08:29:36;19.00;99.90
14555;DHT22;7364;50.870;4.722;2022-07-21T08:32:04;19.00;99.90
14555;DHT22;7364;50.870;4.722;2022-07-21T08:34:33;19.10;99.90
14555;DHT22;7364;50.870;4.722;2022-07-21T08:37:00;19.10;99.90
14555;DHT22;7364;50.870;4.722;2022-07-21T08:39:27;19.20;99.90
14555;DHT22;7364;50.870;4.722;2022-07-21T08:41:54;19.20;99.90
14555;DHT22;7364;50.870;4.722;2022-07-21T08:44:22;19.20;99.90
14555;DHT22;7364;50.870;4.722;2022-07-21T08:46:51;19.20;99.90
14555;DHT22;7364;50.870;4.722;2022-07-21T08:49:20;19.30;99.90
14555;DHT22;7364;50.870;4.722;2022-07-21T08:51:49;19.40;99.90
14555;DHT22;7364;50.870;4.722;2022-07-21T08:54:17;19.40;99.90
14555;DHT22;7364;50.870;4.722;2022-07-21T08:56:44;19.30;99.90
14555;DHT22;7364;50.870;4.722;2022-07-21T08:59:11;19.20;99.90
14555;DHT22;7364;50.870;4.722;2022-07-21T09:01:38;19.20;99.90
14555;DHT22;7364;50.870;4.722;2022-07-21T09:04:27;19.10;99.90
14555;DHT22;7364;50.870;4.722;2022-07-21T09:06:56;19.00;99.90
14555;DHT22;7364;50.870;4.722;2022-07-21T09:09:25;19.10;99.90
14555;DHT22;7364;50.870;4.722;2022-07-21T09:11:53;19.10;99.90
14555;DHT22;7364;50.870;4.722;2022-07-21T09:14:21;19.10;99.90
14555;DHT22;7364;50.870;4.722;2022-07-21T09:16:51;19.10;99.90
14555;DHT22;7364;50.870;4.722;2022-07-21T09:19:21;19.10;99.90
14555;DHT22;7364;50.870;4.722;2022-07-21T09:21:52;19.00;99.90
14555;DHT22;7364;50.870;4.722;2022-07-21T09:24:21;19.10;99.90
14555;DHT22;7364;50.870;4.722;2022-07-21T09:27:00;19.00;99.90
14555;DHT22;7364;50.870;4.722;2022-07-21T09:29:36;18.90;99.90
14555;DHT22;7364;50.870;4.722;2022-07-21T09:32:19;18.80;99.90
14555;DHT22;7364;50.870;4.722;2022-07-21T09:34:49;18.90;99.90
14555;DHT22;7364;50.870;4.722;2022-07-21T09:37:19;18.80;99.90
14555;DHT22;7364;50.870;4.722;2022-07-21T09:39:48;18.70;99.90
14555;DHT22;7364;50.870;4.722;2022-07-21T09:42:19;18.70;99.90
14555;DHT22;7364;50.870;4.722;2022-07-21T09:44:48;18.60;99.90
14555;DHT22;7364;50.870;4.722;2022-07-21T09:47:18;18.50;99.90
14555;DHT22;7364;50.870;4.722;2022-07-21T09:49:45;18.60;99.90
14555;DHT22;7364;50.870;4.722;2022-07-21T09:52:28;18.50;99.90
14555;DHT22;7364;50.870;4.722;2022-07-21T09:54:58;18.40;99.90
14555;DHT22;7364;50.870;4.722;2022-07-21T09:57:33;18.40;99.90
14555;DHT22;7364;50.870;4.722;2022-07-21T10:00:03;18.40;99.90
14555;DHT22;7364;50.870;4.722;2022-07-21T10:02:32;18.40;99.90
14555;DHT22;7364;50.870;4.722;2022-07-21T10:05:02;18.30;99.90
14555;DHT22;7364;50.870;4.722;2022-07-21T10:07:32;18.40;99.90
14555;DHT22;7364;50.870;4.722;2022-07-21T10:10:00;18.40;99.90
14555;DHT22;7364;50.870;4.722;2022-07-21T10:12:29;18.40;99.90
14555;DHT22;7364;50.870;4.722;2022-07-21T10:14:56;18.40;99.90
14555;DHT22;7364;50.870;4.722;2022-07-21T10:17:25;18.50;99.90
14555;DHT22;7364;50.870;4.722;2022-07-21T10:20:06;18.40;99.90
14555;DHT22;7364;50.870;4.722;2022-07-21T10:22:50;18.50;99.90
14555;DHT22;7364;50.870;4.722;2022-07-21T10:25:21;18.60;99.90
14555;DHT22;7364;50.870;4.722;2022-07-21T10:28:12;18.50;99.90
14555;DHT22;7364;50.870;4.722;2022-07-21T10:30:41;18.30;99.90
14555;DHT22;7364;50.870;4.722;2022-07-21T10:33:09;18.40;99.90
14555;DHT22;7364;50.870;4.722;2022-07-21T10:35:41;18.40;99.90
14555;DHT22;7364;50.870;4.722;2022-07-21T10:38:26;18.30;99.90
14555;DHT22;7364;50.870;4.722;2022-07-21T10:40:55;18.30;99.90
14555;DHT22;7364;50.870;4.722;2022-07-21T10:43:39;18.40;99.90
14555;DHT22;7364;50.870;4.722;2022-07-21T10:49:05;18.60;99.90
14555;DHT22;7364;50.870;4.722;2022-07-21T10:51:34;18.60;99.90
14555;DHT22;7364;50.870;4.722;2022-07-21T10:54:25;18.60;99.90
14555;DHT22;7364;50.870;4.722;2022-07-21T11:00:16;18.70;99.90
14555;DHT22;7364;50.870;4.722;2022-07-21T11:02:47;18.70;99.90
14555;DHT22;7364;50.870;4.722;2022-07-21T11:05:14;18.70;99.90
14555;DHT22;7364;50.870;4.722;2022-07-21T11:08:10;18.80;99.90
14555;DHT22;7364;50.870;4.722;2022-07-21T11:10:41;18.80;99.90
14555;DHT22;7364;50.870;4.722;2022-07-21T11:13:09;18.80;99.90
14555;DHT22;7364;50.870;4.722;2022-07-21T11:15:44;18.80;99.90
14555;DHT22;7364;50.870;4.722;2022-07-21T11:18:15;18.80;99.90
14555;DHT22;7364;50.870;4.722;2022-07-21T11:20:43;18.80;99.90
14555;DHT22;7364;50.870;4.722;2022-07-21T11:23:13;18.90;99.90
14555;DHT22;7364;50.870;4.722;2022-07-21T11:25:41;18.90;99.90
14555;DHT22;7364;50.870;4.722;2022-07-21T11:28:16;18.80;99.90
14555;DHT22;7364;50.870;4.722;2022-07-21T11:30:44;18.90;99.90
14555;DHT22;7364;50.870;4.722;2022-07-21T11:33:22;19.00;99.90
14555;DHT22;7364;50.870;4.722;2022-07-21T11:35:49;19.10;99.90
14555;DHT22;7364;50.870;4.722;2022-07-21T11:38:16;19.30;99.90
14555;DHT22;7364;50.870;4.722;2022-07-21T11:40:45;19.50;99.90
14555;DHT22;7364;50.870;4.722;2022-07-21T11:43:12;19.60;99.90
14555;DHT22;7364;50.870;4.722;2022-07-21T11:45:39;19.60;99.90
14555;DHT22;7364;50.870;4.722;2022-07-21T11:48:30;19.60;99.90
14555;DHT22;7364;50.870;4.722;2022-07-21T11:50:59;19.60;99.90
14555;DHT22;7364;50.870;4.722;2022-07-21T11:53:26;19.50;99.90
14555;DHT22;7364;50.870;4.722;2022-07-21T11:55:55;19.50;99.90
14555;DHT22;7364;50.870;4.722;2022-07-21T11:58:22;19.40;99.90
14555;DHT22;7364;50.870;4.722;2022-07-21T12:01:03;19.40;99.90
14555;DHT22;7364;50.870;4.722;2022-07-21T12:03:31;19.30;99.90
14555;DHT22;7364;50.870;4.722;2022-07-21T12:05:59;19.10;99.90
14555;DHT22;7364;50.870;4.722;2022-07-21T12:08:28;19.10;99.90
14555;DHT22;7364;50.870;4.722;2022-07-21T12:11:06;19.10;99.90
14555;DHT22;7364;50.870;4.722;2022-07-21T12:13:52;19.00;99.90
14555;DHT22;7364;50.870;4.722;2022-07-21T12:16:20;19.00;99.90
14555;DHT22;7364;50.870;4.722;2022-07-21T12:18:49;19.20;99.90
14555;DHT22;7364;50.870;4.722;2022-07-21T12:21:16;19.40;99.90
14555;DHT22;7364;50.870;4.722;2022-07-21T12:23:44;19.60;99.90
14555;DHT22;7364;50.870;4.722;2022-07-21T12:26:21;19.80;99.90
14555;DHT22;7364;50.870;4.722;2022-07-21T12:28:50;19.80;99.90
14555;DHT22;7364;50.870;4.722;2022-07-21T12:31:20;19.70;99.90
14555;DHT22;7364;50.870;4.722;2022-07-21T12:33:49;19.60;99.90
14555;DHT22;7364;50.870;4.722;2022-07-21T12:36:20;19.50;99.90
14555;DHT22;7364;50.870;4.722;2022-07-21T12:38:48;19.40;99.90
14555;DHT22;7364;50.870;4.722;2022-07-21T12:41:18;19.30;99.90
14555;DHT22;7364;50.870;4.722;2022-07-21T12:43:55;19.40;99.90
14555;DHT22;7364;50.870;4.722;2022-07-21T12:46:28;19.40;99.90
14555;DHT22;7364;50.870;4.722;2022-07-21T12:49:03;19.30;99.90
14555;DHT22;7364;50.870;4.722;2022-07-21T12:51:31;19.40;99.90
14555;DHT22;7364;50.870;4.722;2022-07-21T12:53:59;19.40;99.90
14555;DHT22;7364;50.870;4.722;2022-07-21T12:56:27;19.50;99.90
14555;DHT22;7364;50.870;4.722;2022-07-21T12:58:58;19.40;99.90
14555;DHT22;7364;50.870;4.722;2022-07-21T13:01:30;19.40;99.90
14555;DHT22;7364;50.870;4.722;2022-07-21T13:03:58;19.40;99.90
14555;DHT22;7364;50.870;4.722;2022-07-21T13:06:25;19.40;99.90
14555;DHT22;7364;50.870;4.722;2022-07-21T13:08:52;19.40;99.90
14555;DHT22;7364;50.870;4.722;2022-07-21T13:11:20;19.40;99.90
14555;DHT22;7364;50.870;4.722;2022-07-21T13:13:49;19.30;99.90
14555;DHT22;7364;50.870;4.722;2022-07-21T13:16:18;19.20;99.90
14555;DHT22;7364;50.870;4.722;2022-07-21T13:18:46;19.10;99.90
14555;DHT22;7364;50.870;4.722;2022-07-21T13:21:13;19.10;99.90
14555;DHT22;7364;50.870;4.722;2022-07-21T13:23:40;19.00;99.90
14555;DHT22;7364;50.870;4.722;2022-07-21T13:26:09;19.10;99.90
14555;DHT22;7364;50.870;4.722;2022-07-21T13:28:36;19.10;99.90
14555;DHT22;7364;50.870;4.722;2022-07-21T13:31:05;19.00;99.90
14555;DHT22;7364;50.870;4.722;2022-07-21T13:33:36;19.00;99.90
14555;DHT22;7364;50.870;4.722;2022-07-21T13:36:04;19.10;99.90
14555;DHT22;7364;50.870;4.722;2022-07-21T13:38:31;19.30;99.90
14555;DHT22;7364;50.870;4.722;2022-07-21T13:40:58;19.60;99.90
14555;DHT22;7364;50.870;4.722;2022-07-21T13:43:26;19.70;99.90
14555;DHT22;7364;50.870;4.722;2022-07-21T13:45:53;19.80;99.90
14555;DHT22;7364;50.870;4.722;2022-07-21T13:48:20;19.70;99.90
14555;DHT22;7364;50.870;4.722;2022-07-21T13:50:49;19.80;99.90
14555;DHT22;7364;50.870;4.722;2022-07-21T13:53:16;19.80;99.90
14555;DHT22;7364;50.870;4.722;2022-07-21T13:55:43;19.80;99.90
14555;DHT22;7364;50.870;4.722;2022-07-21T13:58:11;19.70;99.90
14555;DHT22;7364;50.870;4.722;2022-07-21T14:00:38;19.60;99.90
14555;DHT22;7364;50.870;4.722;2022-07-21T14:03:05;19.70;99.90
14555;DHT22;7364;50.870;4.722;2022-07-21T14:05:33;19.60;99.90
14555;DHT22;7364;50.870;4.722;2022-07-21T14:08:03;19.50;99.90
14555;DHT22;7364;50.870;4.722;2022-07-21T14:10:31;19.50;99.90
14555;DHT22;7364;50.870;4.722;2022-07-21T14:13:00;19.40;99.90
14555;DHT22;7364;50.870;4.722;2022-07-21T14:15:27;19.40;99.90
14555;DHT22;7364;50.870;4.722;2022-07-21T14:17:54;19.40;99.90
14555;DHT22;7364;50.870;4.722;2022-07-21T14:20:22;19.20;99.90
14555;DHT22;7364;50.870;4.722;2022-07-21T14:22:49;19.20;99.90
14555;DHT22;7364;50.870;4.722;2022-07-21T14:25:17;19.30;99.90
14555;DHT22;7364;50.870;4.722;2022-07-21T14:27:45;19.40;99.90
14555;DHT22;7364;50.870;4.722;2022-07-21T14:30:12;19.50;99.90
14555;DHT22;7364;50.870;4.722;2022-07-21T14:32:39;19.60;99.90
14555;DHT22;7364;50.870;4.722;2022-07-21T14:35:07;19.70;99.90
14555;DHT22;7364;50.870;4.722;2022-07-21T14:37:35;19.70;99.90
14555;DHT22;7364;50.870;4.722;2022-07-21T14:40:03;19.80;99.90
14555;DHT22;7364;50.870;4.722;2022-07-21T14:42:33;19.90;99.90
14555;DHT22;7364;50.870;4.722;2022-07-21T14:45:00;20.20;99.90
14555;DHT22;7364;50.870;4.722;2022-07-21T14:47:27;20.30;99.90
14555;DHT22;7364;50.870;4.722;2022-07-21T14:49:55;20.30;99.90
14555;DHT22;7364;50.870;4.722;2022-07-21T14:52:23;20.10;99.90
14555;DHT22;7364;50.870;4.722;2022-07-21T14:54:50;19.90;99.90
14555;DHT22;7364;50.870;4.722;2022-07-21T14:57:17;19.80;99.90
14555;DHT22;7364;50.870;4.722;2022-07-21T14:59:47;19.70;99.90
14555;DHT22;7364;50.870;4.722;2022-07-21T15:02:14;19.60;99.90
14555;DHT22;7364;50.870;4.722;2022-07-21T15:04:42;19.50;99.90
14555;DHT22;7364;50.870;4.722;2022-07-21T15:07:09;19.40;99.90
14555;DHT22;7364;50.870;4.722;2022-07-21T15:09:37;19.30;99.90
14555;DHT22;7364;50.870;4.722;2022-07-21T15:12:05;19.30;99.90
14555;DHT22;7364;50.870;4.722;2022-07-21T15:14:32;19.20;99.90
14555;DHT22;7364;50.870;4.722;2022-07-21T15:17:01;19.20;99.90
14555;DHT22;7364;50.870;4.722;2022-07-21T15:19:28;19.20;99.90
14555;DHT22;7364;50.870;4.722;2022-07-21T15:21:55;19.20;99.90
14555;DHT22;7364;50.870;4.722;2022-07-21T15:24:23;19.20;99.90
14555;DHT22;7364;50.870;4.722;2022-07-21T15:26:50;19.30;99.90
14555;DHT22;7364;50.870;4.722;2022-07-21T15:29:17;19.70;99.90
14555;DHT22;7364;50.870;4.722;2022-07-21T15:31:45;20.50;99.90
14555;DHT22;7364;50.870;4.722;2022-07-21T15:34:13;21.00;99.90
14555;DHT22;7364;50.870;4.722;2022-07-21T15:36:40;21.00;99.90
14555;DHT22;7364;50.870;4.722;2022-07-21T15:39:08;20.80;99.90
14555;DHT22;7364;50.870;4.722;2022-07-21T15:41:36;20.60;99.90
14555;DHT22;7364;50.870;4.722;2022-07-21T15:44:04;20.50;99.90
14555;DHT22;7364;50.870;4.722;2022-07-21T15:46:31;20.30;99.90
14555;DHT22;7364;50.870;4.722;2022-07-21T15:48:59;20.10;99.90
14555;DHT22;7364;50.870;4.722;2022-07-21T15:51:28;20.10;99.90
14555;DHT22;7364;50.870;4.722;2022-07-21T15:53:58;20.00;99.90
14555;DHT22;7364;50.870;4.722;2022-07-21T15:56:25;20.10;99.90
14555;DHT22;7364;50.870;4.722;2022-07-21T15:58:53;20.20;99.90
14555;DHT22;7364;50.870;4.722;2022-07-21T16:01:37;20.20;99.90